createdAt,value
2023-05-01T00:04:01.225Z,6.22
2023-05-01T00:09:03.782Z,6.65
2023-05-01T00:14:07.410Z,5.18
2023-05-01T00:19:09.558Z,5.28
2023-05-01T00:24:15.053Z,5.65
2023-05-01T00:29:18.721Z,5.22
2023-05-01T00:34:21.039Z,5.95
2023-05-01T00:39:23.197Z,5.03
2023-05-01T00:44:26.905Z,5.57
2023-05-01T00:49:29.189Z,5.10
2023-05-01T00:54:31.371Z,4.80
2023-05-01T00:59:35.270Z,5.30
2023-05-01T01:04:37.516Z,5.00
2023-05-01T01:10:02.642Z,4.72
2023-05-01T01:15:16.717Z,5.60
2023-05-01T01:20:38.804Z,5.22
2023-05-01T01:26:12.239Z,5.22
2023-05-01T01:31:22.159Z,5.90
2023-05-01T01:36:41.202Z,5.32
2023-05-01T01:41:50.337Z,5.18
2023-05-01T01:46:54.774Z,5.43
2023-05-01T01:52:01.840Z,4.88
2023-05-01T01:57:07.458Z,4.97
2023-05-01T02:02:11.276Z,6.00
2023-05-01T02:07:17.394Z,5.70
2023-05-01T02:12:21.108Z,6.00
2023-05-01T02:17:24.004Z,6.82
2023-05-01T02:22:28.892Z,6.10
2023-05-01T02:27:35.323Z,6.47
2023-05-01T02:32:37.601Z,7.27
2023-05-01T02:37:41.329Z,6.05
2023-05-01T02:42:45.444Z,6.25
2023-05-01T02:47:51.650Z,6.03
2023-05-01T02:52:55.621Z,5.80
2023-05-01T02:57:59.142Z,6.68
2023-05-01T03:03:01.508Z,6.00
2023-05-01T03:08:05.594Z,6.40
2023-05-01T03:13:07.768Z,6.60
2023-05-01T03:18:10.054Z,6.63
2023-05-01T03:23:13.626Z,7.15
2023-05-01T03:28:15.919Z,7.22
2023-05-01T03:33:18.070Z,6.80
2023-05-01T03:38:21.624Z,8.80
2023-05-01T03:43:24.346Z,8.73
2023-05-01T03:48:26.724Z,8.45
2023-05-01T03:53:30.387Z,8.65
2023-05-01T03:58:33.670Z,8.90
2023-05-01T04:03:35.917Z,9.70
2023-05-01T04:08:39.616Z,9.13
2023-05-01T04:13:41.920Z,8.50
2023-05-01T04:18:44.053Z,8.10
2023-05-01T04:23:47.730Z,8.02
2023-05-01T04:28:49.853Z,8.32
2023-05-01T04:33:52.030Z,8.55
2023-05-01T04:38:55.702Z,7.90
2023-05-01T04:43:57.774Z,9.30
2023-05-01T04:48:59.920Z,8.80
2023-05-01T04:54:03.637Z,8.77
2023-05-01T04:59:05.726Z,8.02
2023-05-01T05:04:07.972Z,8.65
2023-05-01T05:09:11.709Z,7.45
2023-05-01T05:14:13.885Z,8.13
2023-05-01T05:19:16.498Z,7.68
2023-05-01T05:24:20.217Z,8.10
2023-05-01T05:29:22.396Z,7.35
2023-05-01T05:34:24.597Z,6.75
2023-05-01T05:39:28.133Z,6.75
2023-05-01T05:44:30.280Z,6.88
2023-05-01T05:49:32.349Z,5.78
2023-05-01T05:54:35.991Z,5.18
2023-05-01T05:59:38.158Z,4.68
2023-05-01T06:04:40.318Z,5.18
2023-05-01T06:09:43.903Z,4.70
2023-05-01T06:14:46.028Z,4.88
2023-05-01T06:19:48.407Z,4.43
2023-05-01T06:24:55.013Z,4.28
2023-05-01T06:29:57.444Z,4.32
2023-05-01T06:34:59.795Z,4.78
2023-05-01T06:40:03.553Z,4.88
2023-05-01T06:45:07.012Z,4.95
2023-05-01T06:50:11.327Z,4.40
2023-05-01T06:55:15.157Z,3.80
2023-05-01T07:00:18.665Z,4.22
2023-05-01T07:05:20.798Z,3.47
2023-05-01T07:10:24.339Z,3.60
2023-05-01T07:15:26.640Z,4.85
2023-05-01T07:20:28.823Z,3.30
2023-05-01T07:25:32.436Z,3.53
2023-05-01T07:30:35.636Z,3.65
2023-05-01T07:35:37.913Z,3.17
2023-05-01T07:40:41.576Z,2.90
2023-05-01T07:45:55.268Z,3.20
2023-05-01T07:50:57.591Z,3.15
2023-05-01T08:01:10.434Z,2.95
2023-05-01T08:06:12.590Z,3.50
2023-05-01T08:11:14.685Z,3.15
2023-05-01T08:16:19.789Z,3.05
2023-05-01T08:21:23.891Z,3.45
2023-05-01T08:26:26.064Z,2.83
2023-05-01T08:31:29.834Z,3.03
2023-05-01T08:36:32.320Z,3.22
2023-05-01T08:41:37.146Z,2.78
2023-05-01T08:46:46.927Z,2.90
2023-05-01T08:51:51.658Z,2.85
2023-05-01T08:56:54.736Z,3.08
2023-05-01T09:02:01.383Z,2.53
2023-05-01T09:07:04.103Z,3.13
2023-05-01T09:12:17.841Z,2.88
2023-05-01T09:17:23.568Z,2.35
2023-05-01T09:22:26.149Z,2.37
2023-05-01T09:27:28.592Z,4.10
2023-05-01T09:32:32.102Z,2.80
2023-05-01T09:37:35.282Z,2.50
2023-05-01T09:42:38.954Z,3.00
2023-05-01T09:47:44.112Z,2.40
2023-05-01T09:52:50.552Z,2.57
2023-05-01T09:57:53.382Z,2.50
2023-05-01T10:02:57.084Z,2.58
2023-05-01T10:08:01.314Z,2.03
2023-05-01T10:13:14.164Z,2.20
2023-05-01T10:18:18.345Z,2.60
2023-05-01T10:23:20.584Z,2.15
2023-05-01T10:28:23.277Z,2.35
2023-05-01T10:33:26.869Z,2.33
2023-05-01T10:38:34.248Z,2.05
2023-05-01T10:43:36.412Z,1.90
2023-05-01T10:48:56.637Z,2.20
2023-05-01T10:54:24.557Z,1.77
2023-05-01T10:59:48.741Z,2.17
2023-05-01T11:04:52.371Z,1.73
2023-05-01T11:09:56.068Z,1.80
2023-05-01T11:15:07.640Z,2.03
2023-05-01T11:20:12.592Z,2.15
2023-05-01T11:25:25.030Z,1.90
2023-05-01T11:30:36.109Z,1.98
2023-05-01T11:35:40.080Z,1.50
2023-05-01T11:40:42.210Z,1.95
2023-05-01T11:45:44.416Z,1.83
2023-05-01T11:50:48.152Z,1.90
2023-05-01T11:55:50.361Z,2.75
2023-05-01T12:00:52.551Z,1.50
2023-05-01T12:05:56.071Z,1.30
2023-05-01T12:10:58.451Z,1.25
2023-05-01T12:16:01.038Z,1.40
2023-05-01T12:21:15.689Z,2.42
2023-05-01T12:26:19.098Z,1.50
2023-05-01T12:31:22.170Z,1.15
2023-05-01T12:36:27.591Z,0.98
2023-05-01T12:41:48.441Z,1.65
2023-05-01T12:46:55.052Z,2.00
2023-05-01T12:52:00.862Z,2.20
2023-05-01T12:57:07.473Z,2.10
2023-05-01T13:07:15.247Z,1.52
2023-05-01T13:12:17.450Z,1.38
2023-05-01T13:17:24.833Z,1.75
2023-05-01T13:22:33.086Z,1.67
2023-05-01T13:27:35.407Z,1.55
2023-05-01T13:32:41.106Z,1.50
2023-05-01T13:37:45.259Z,1.60
2023-05-01T13:42:52.435Z,1.30
2023-05-01T13:47:54.811Z,1.45
2023-05-01T13:52:58.413Z,1.38
2023-05-01T13:58:01.330Z,1.80
2023-05-01T14:03:03.797Z,2.03
2023-05-01T14:08:09.577Z,1.65
2023-05-01T14:13:11.702Z,2.30
2023-05-01T14:18:17.226Z,1.42
2023-05-01T14:23:20.881Z,1.20
2023-05-01T14:28:23.728Z,1.20
2023-05-01T14:33:25.940Z,1.48
2023-05-01T14:38:31.211Z,1.35
2023-05-01T14:43:34.181Z,1.05
2023-05-01T14:48:36.983Z,1.10
2023-05-01T14:53:41.487Z,0.90
2023-05-01T14:58:43.609Z,0.93
2023-05-01T15:03:46.061Z,0.98
2023-05-01T15:08:50.280Z,0.88
2023-05-01T15:13:52.418Z,0.98
2023-05-01T15:18:54.547Z,1.10
2023-05-01T15:23:58.071Z,0.90
2023-05-01T15:29:00.347Z,1.08
2023-05-01T15:34:02.590Z,2.17
2023-05-01T15:39:06.847Z,1.30
2023-05-01T15:44:09.153Z,0.90
2023-05-01T15:49:11.230Z,1.00
2023-05-01T15:54:14.903Z,0.80
2023-05-01T15:59:17.067Z,0.85
2023-05-01T16:04:19.261Z,0.85
2023-05-01T16:09:29.223Z,0.73
2023-05-01T16:14:31.392Z,1.08
2023-05-01T16:19:33.703Z,1.00
2023-05-01T16:24:38.629Z,2.85
2023-05-01T16:29:40.794Z,3.55
2023-05-01T16:34:44.116Z,1.40
2023-05-01T16:39:47.791Z,1.08
2023-05-01T16:44:49.949Z,1.60
2023-05-01T16:49:58.649Z,1.77
2023-05-01T16:55:02.562Z,1.30
2023-05-01T17:00:06.846Z,1.65
2023-05-01T17:05:09.616Z,1.60
2023-05-01T17:10:13.233Z,1.23
2023-05-01T17:15:15.483Z,1.08
2023-05-01T17:20:17.756Z,1.08
2023-05-01T17:25:21.299Z,1.45
2023-05-01T17:30:23.442Z,1.25
2023-05-01T17:35:25.648Z,1.45
2023-05-01T17:40:29.305Z,1.88
2023-05-01T17:45:31.521Z,2.35
2023-05-01T17:50:34.249Z,2.95
2023-05-01T17:55:38.000Z,3.88
2023-05-01T18:00:40.196Z,3.85
2023-05-01T18:05:42.309Z,3.42
2023-05-01T18:10:45.803Z,3.67
2023-05-01T18:15:50.543Z,3.75
2023-05-01T18:20:54.074Z,4.50
2023-05-01T18:25:57.547Z,4.22
2023-05-01T18:30:59.698Z,4.45
2023-05-01T18:36:01.846Z,4.45
2023-05-01T18:41:12.593Z,4.15
2023-05-01T18:46:16.557Z,4.63
2023-05-01T18:51:18.798Z,4.28
2023-05-01T18:56:22.378Z,4.45
2023-05-01T19:01:24.563Z,4.28
2023-05-01T19:06:27.090Z,4.25
2023-05-01T19:11:30.838Z,4.03
2023-05-01T19:16:33.075Z,3.90
2023-05-01T19:21:35.209Z,5.00
2023-05-01T19:26:38.827Z,5.28
2023-05-01T19:31:41.069Z,5.90
2023-05-01T19:36:43.235Z,5.30
2023-05-01T19:41:47.492Z,5.90
2023-05-01T19:46:49.697Z,6.40
2023-05-01T19:51:51.823Z,7.10
2023-05-01T20:02:05.170Z,6.50
2023-05-01T20:07:07.383Z,5.80
2023-05-01T20:12:09.603Z,5.70
2023-05-01T20:17:13.144Z,5.32
2023-05-01T20:22:15.289Z,5.53
2023-05-01T20:27:17.463Z,5.57
2023-05-01T20:32:21.163Z,5.57
2023-05-01T20:37:23.361Z,6.60
2023-05-01T20:42:25.818Z,6.63
2023-05-01T20:47:29.323Z,7.38
2023-05-01T20:52:31.559Z,6.45
2023-05-01T20:57:35.612Z,6.63
2023-05-01T21:02:41.597Z,7.03
2023-05-01T21:07:43.797Z,7.05
2023-05-01T21:12:45.925Z,7.65
2023-05-01T21:17:49.609Z,7.68
2023-05-01T21:22:51.748Z,9.23
2023-05-01T21:27:54.022Z,10.77
2023-05-01T21:32:58.071Z,10.60
2023-05-01T21:38:00.965Z,10.35
2023-05-01T21:43:03.148Z,10.82
2023-05-01T21:48:08.139Z,9.25
2023-05-01T21:53:10.422Z,8.73
2023-05-01T21:58:13.665Z,8.82
2023-05-01T22:03:18.831Z,9.25
2023-05-01T22:08:21.257Z,9.05
2023-05-01T22:13:23.500Z,7.80
2023-05-01T22:18:27.387Z,8.50
2023-05-01T22:23:29.626Z,7.05
2023-05-01T22:28:31.895Z,7.68
2023-05-01T22:33:35.593Z,7.78
2023-05-01T22:38:37.811Z,8.35
2023-05-01T22:43:40.062Z,7.35
2023-05-01T22:48:43.852Z,7.43
2023-05-01T22:53:46.076Z,7.63
2023-05-01T22:58:48.407Z,7.53
2023-05-01T23:03:52.173Z,7.03
2023-05-01T23:08:54.496Z,6.85
2023-05-01T23:13:56.648Z,7.00
2023-05-01T23:19:00.465Z,6.45
2023-05-01T23:24:02.824Z,5.88
2023-05-01T23:29:06.541Z,6.32
2023-05-01T23:34:10.761Z,6.82
2023-05-01T23:39:13.000Z,6.68
2023-05-01T23:44:15.223Z,7.28
2023-05-01T23:49:19.783Z,7.53
2023-05-01T23:54:22.039Z,6.60
2023-05-01T23:59:24.226Z,4.72
